Hlavní strana
METAR-TAF:

METAR-TAF

Letiště :

Osijek, Chorvatsko

zeměpisná šířka: 45-27N, zeměpisná délka: 018-48E, výška: 88 m

Aktuální stav počasí

Zpráva byla vytvořena před 27 minutami, v 21:00 UTC
Východní vítr 2 kt
Teplota 19°C
Vlhkost vzduchu 94%
Tlak 1020 hPa
Viditelnost 10 km a více
Žádná oblačnost pod 1500 m, nevyskytují se cumulonimby.

METAR: LDOS 262100Z 08002KT CAVOK 19/18 Q1020

Čas: 23:27 (21:27 UTC)

Předpověď počasí

Zpráva byla vytvořena před 4 hodinami a 2 minutami, v 17:25 UTC
Předpověď platná od 26 v 18 UTC do 27 v 18 UTC
Východojihovýchodní vítr 5 kt
Viditelnost 10 km a více
Polojasno ve výšce 4000 ft
Pravděpodobnost 30% :
Dočasný
od 26 v 18 UTC do 26 v 20 UTC
Skoro jasno ve výšce 4000 ft, Vertikální cumulus.
Polojasno ve výšce 4500 ft
dešťové přeháňky
Pravděpodobnost 40% :
Dočasný
od 27 v 02 UTC do 27 v 06 UTC
Viditelnost: 1000 m
chuchvalce mlhy

TAF: LDOS 261725Z 2618/2718 11005KT 9999 SCT040 TX28/2714Z TN16/2703Z PROB30 TEMPO 2618/2620 SHRA FEW040TCU SCT045 PROB40 TEMPO 2702/2706 1000 BCFG

Stav a předpovědi počasí z více než 4 000 letišť (zprávy METAR a TAF).

Červené a žluté tečky na mapě představují dostupné meteorologické stanice.

Když kurzor umístíte na tečku, zobrazí se název stanice.

Pak kliknutím zobrazíte stav a předpověď počasí.

Chcete-li změnit mapu, kliknutím na zelené tlačítko se znaménkem +mapu přiblížíte, kliknutím na zelené tlačítko se znaménkem – mapu oddálíte a kliknutím na zelené šipky přejdete na sousední mapy.


METAR-TAF: